sensor_id;sensor_type;location;lat;lon;timestamp;P1;durP1;ratioP1;P2;durP2;ratioP2
63046;SDS011;62025;39.238;9.126;2023-04-01T00:00:56;12.18;;;4.70;;
63046;SDS011;62025;39.238;9.126;2023-04-01T00:03:24;12.68;;;4.72;;
63046;SDS011;62025;39.238;9.126;2023-04-01T00:05:54;10.43;;;4.75;;
63046;SDS011;62025;39.238;9.126;2023-04-01T00:08:22;8.77;;;4.57;;
63046;SDS011;62025;39.238;9.126;2023-04-01T00:10:49;14.35;;;4.82;;
63046;SDS011;62025;39.238;9.126;2023-04-01T00:13:15;9.48;;;4.95;;
63046;SDS011;62025;39.238;9.126;2023-04-01T00:15:42;11.38;;;4.72;;
63046;SDS011;62025;39.238;9.126;2023-04-01T00:18:08;8.77;;;4.43;;
63046;SDS011;62025;39.238;9.126;2023-04-01T00:20:34;9.60;;;4.82;;
63046;SDS011;62025;39.238;9.126;2023-04-01T00:23:01;8.70;;;4.50;;
63046;SDS011;62025;39.238;9.126;2023-04-01T00:25:27;10.75;;;4.60;;
63046;SDS011;62025;39.238;9.126;2023-04-01T00:27:53;10.65;;;5.10;;
63046;SDS011;62025;39.238;9.126;2023-04-01T00:30:20;11.07;;;4.40;;
63046;SDS011;62025;39.238;9.126;2023-04-01T00:32:46;10.55;;;4.60;;
63046;SDS011;62025;39.238;9.126;2023-04-01T00:35:12;11.15;;;4.63;;
63046;SDS011;62025;39.238;9.126;2023-04-01T00:37:38;11.40;;;4.55;;
63046;SDS011;62025;39.238;9.126;2023-04-01T00:40:07;12.60;;;4.65;;
63046;SDS011;62025;39.238;9.126;2023-04-01T00:43:11;10.77;;;4.70;;
63046;SDS011;62025;39.238;9.126;2023-04-01T00:45:47;15.45;;;4.20;;
63046;SDS011;62025;39.238;9.126;2023-04-01T00:48:24;10.75;;;5.00;;
63046;SDS011;62025;39.238;9.126;2023-04-01T00:50:59;9.50;;;4.35;;
63046;SDS011;62025;39.238;9.126;2023-04-01T00:53:33;11.30;;;4.63;;
63046;SDS011;62025;39.238;9.126;2023-04-01T00:56:09;13.85;;;4.63;;
63046;SDS011;62025;39.238;9.126;2023-04-01T00:58:54;8.45;;;4.15;;
63046;SDS011;62025;39.238;9.126;2023-04-01T01:01:29;12.10;;;4.30;;
63046;SDS011;62025;39.238;9.126;2023-04-01T01:03:56;11.88;;;4.60;;
63046;SDS011;62025;39.238;9.126;2023-04-01T01:06:35;12.00;;;4.57;;
63046;SDS011;62025;39.238;9.126;2023-04-01T01:12:19;10.85;;;4.00;;
63046;SDS011;62025;39.238;9.126;2023-04-01T01:14:53;9.85;;;5.13;;
63046;SDS011;62025;39.238;9.126;2023-04-01T01:17:42;14.05;;;4.78;;
63046;SDS011;62025;39.238;9.126;2023-04-01T01:35:54;14.55;;;4.85;;
63046;SDS011;62025;39.238;9.126;2023-04-01T01:38:27;15.65;;;4.43;;
63046;SDS011;62025;39.238;9.126;2023-04-01T01:40:59;14.57;;;4.80;;
63046;SDS011;62025;39.238;9.126;2023-04-01T01:43:30;14.30;;;4.55;;
63046;SDS011;62025;39.238;9.126;2023-04-01T01:46:11;12.10;;;5.10;;
63046;SDS011;62025;39.238;9.126;2023-04-01T01:48:43;9.15;;;4.22;;
63046;SDS011;62025;39.238;9.126;2023-04-01T01:51:11;11.65;;;4.38;;
63046;SDS011;62025;39.238;9.126;2023-04-01T01:53:37;11.38;;;4.40;;
63046;SDS011;62025;39.238;9.126;2023-04-01T01:56:03;10.23;;;4.22;;
63046;SDS011;62025;39.238;9.126;2023-04-01T01:58:37;13.82;;;4.47;;
63046;SDS011;62025;39.238;9.126;2023-04-01T02:01:13;12.88;;;4.30;;
63046;SDS011;62025;39.238;9.126;2023-04-01T02:03:57;15.75;;;4.80;;
63046;SDS011;62025;39.238;9.126;2023-04-01T02:06:26;11.48;;;4.65;;
63046;SDS011;62025;39.238;9.126;2023-04-01T02:08:57;11.35;;;4.53;;
63046;SDS011;62025;39.238;9.126;2023-04-01T02:11:39;12.82;;;4.18;;
63046;SDS011;62025;39.238;9.126;2023-04-01T02:16:57;11.90;;;4.60;;
63046;SDS011;62025;39.238;9.126;2023-04-01T02:19:34;13.70;;;4.60;;
63046;SDS011;62025;39.238;9.126;2023-04-01T02:22:08;9.43;;;4.28;;
63046;SDS011;62025;39.238;9.126;2023-04-01T02:24:39;11.40;;;4.88;;
63046;SDS011;62025;39.238;9.126;2023-04-01T02:27:06;12.88;;;4.70;;
63046;SDS011;62025;39.238;9.126;2023-04-01T02:32:05;12.48;;;4.70;;
63046;SDS011;62025;39.238;9.126;2023-04-01T02:37:00;10.25;;;4.50;;
63046;SDS011;62025;39.238;9.126;2023-04-01T02:39:26;12.10;;;5.15;;
63046;SDS011;62025;39.238;9.126;2023-04-01T02:41:53;10.93;;;4.80;;
63046;SDS011;62025;39.238;9.126;2023-04-01T02:44:19;9.85;;;5.18;;
63046;SDS011;62025;39.238;9.126;2023-04-01T02:46:45;13.02;;;4.78;;
63046;SDS011;62025;39.238;9.126;2023-04-01T02:49:11;15.15;;;5.00;;
63046;SDS011;62025;39.238;9.126;2023-04-01T02:51:37;14.48;;;5.45;;
63046;SDS011;62025;39.238;9.126;2023-04-01T02:54:03;11.68;;;4.72;;
63046;SDS011;62025;39.238;9.126;2023-04-01T02:56:29;10.30;;;4.95;;
63046;SDS011;62025;39.238;9.126;2023-04-01T02:58:55;10.73;;;4.65;;
63046;SDS011;62025;39.238;9.126;2023-04-01T03:01:21;14.68;;;5.05;;
63046;SDS011;62025;39.238;9.126;2023-04-01T03:03:47;12.02;;;5.38;;
63046;SDS011;62025;39.238;9.126;2023-04-01T03:06:14;13.52;;;5.32;;
63046;SDS011;62025;39.238;9.126;2023-04-01T03:08:41;15.65;;;5.20;;
63046;SDS011;62025;39.238;9.126;2023-04-01T03:11:08;10.43;;;4.85;;
63046;SDS011;62025;39.238;9.126;2023-04-01T03:13:35;10.73;;;5.25;;
63046;SDS011;62025;39.238;9.126;2023-04-01T03:16:01;14.45;;;4.93;;
63046;SDS011;62025;39.238;9.126;2023-04-01T03:18:28;14.75;;;5.72;;
63046;SDS011;62025;39.238;9.126;2023-04-01T03:20:55;12.93;;;4.97;;
63046;SDS011;62025;39.238;9.126;2023-04-01T03:23:21;12.73;;;5.75;;
63046;SDS011;62025;39.238;9.126;2023-04-01T03:25:49;17.45;;;5.90;;
63046;SDS011;62025;39.238;9.126;2023-04-01T03:28:15;18.00;;;5.28;;
63046;SDS011;62025;39.238;9.126;2023-04-01T03:30:42;7.78;;;5.00;;
63046;SDS011;62025;39.238;9.126;2023-04-01T03:33:09;12.13;;;5.53;;
63046;SDS011;62025;39.238;9.126;2023-04-01T03:35:35;12.45;;;5.50;;
63046;SDS011;62025;39.238;9.126;2023-04-01T03:38:01;15.00;;;5.50;;
63046;SDS011;62025;39.238;9.126;2023-04-01T03:40:28;11.32;;;5.30;;
63046;SDS011;62025;39.238;9.126;2023-04-01T03:42:54;12.77;;;5.40;;
63046;SDS011;62025;39.238;9.126;2023-04-01T03:45:21;13.00;;;5.75;;
63046;SDS011;62025;39.238;9.126;2023-04-01T03:47:48;16.95;;;5.70;;
63046;SDS011;62025;39.238;9.126;2023-04-01T03:50:14;13.45;;;5.57;;
63046;SDS011;62025;39.238;9.126;2023-04-01T03:52:42;14.73;;;5.47;;
63046;SDS011;62025;39.238;9.126;2023-04-01T03:55:08;13.20;;;5.78;;
63046;SDS011;62025;39.238;9.126;2023-04-01T03:57:36;14.68;;;6.30;;
63046;SDS011;62025;39.238;9.126;2023-04-01T04:00:13;15.73;;;5.57;;
63046;SDS011;62025;39.238;9.126;2023-04-01T04:02:39;13.60;;;5.95;;
63046;SDS011;62025;39.238;9.126;2023-04-01T04:05:06;15.57;;;6.68;;
63046;SDS011;62025;39.238;9.126;2023-04-01T04:07:34;13.60;;;6.18;;
63046;SDS011;62025;39.238;9.126;2023-04-01T04:10:06;13.30;;;6.38;;
63046;SDS011;62025;39.238;9.126;2023-04-01T04:12:33;18.30;;;6.10;;
63046;SDS011;62025;39.238;9.126;2023-04-01T04:14:59;13.82;;;5.80;;
63046;SDS011;62025;39.238;9.126;2023-04-01T04:17:25;17.50;;;6.43;;
63046;SDS011;62025;39.238;9.126;2023-04-01T04:19:52;14.60;;;6.30;;
63046;SDS011;62025;39.238;9.126;2023-04-01T04:22:19;13.70;;;6.25;;
63046;SDS011;62025;39.238;9.126;2023-04-01T04:24:45;14.07;;;6.10;;
63046;SDS011;62025;39.238;9.126;2023-04-01T04:27:12;20.02;;;6.57;;
63046;SDS011;62025;39.238;9.126;2023-04-01T04:29:50;13.55;;;5.93;;
63046;SDS011;62025;39.238;9.126;2023-04-01T04:32:16;21.88;;;7.10;;
63046;SDS011;62025;39.238;9.126;2023-04-01T04:34:42;15.45;;;6.10;;
63046;SDS011;62025;39.238;9.126;2023-04-01T04:37:08;14.63;;;6.00;;
63046;SDS011;62025;39.238;9.126;2023-04-01T04:39:35;17.20;;;6.18;;
63046;SDS011;62025;39.238;9.126;2023-04-01T04:42:02;15.73;;;6.60;;
63046;SDS011;62025;39.238;9.126;2023-04-01T04:44:28;16.38;;;6.30;;
63046;SDS011;62025;39.238;9.126;2023-04-01T04:46:54;14.60;;;6.28;;
63046;SDS011;62025;39.238;9.126;2023-04-01T04:49:20;15.65;;;5.97;;
63046;SDS011;62025;39.238;9.126;2023-04-01T04:51:47;14.32;;;5.88;;
63046;SDS011;62025;39.238;9.126;2023-04-01T04:54:15;14.90;;;5.97;;
63046;SDS011;62025;39.238;9.126;2023-04-01T04:56:53;15.02;;;6.05;;
63046;SDS011;62025;39.238;9.126;2023-04-01T04:59:21;16.87;;;6.07;;
63046;SDS011;62025;39.238;9.126;2023-04-01T05:01:55;16.55;;;6.80;;
63046;SDS011;62025;39.238;9.126;2023-04-01T05:04:21;14.13;;;6.35;;
63046;SDS011;62025;39.238;9.126;2023-04-01T05:06:47;15.70;;;6.13;;
63046;SDS011;62025;39.238;9.126;2023-04-01T05:09:15;17.30;;;6.30;;
63046;SDS011;62025;39.238;9.126;2023-04-01T05:11:41;21.90;;;6.68;;
63046;SDS011;62025;39.238;9.126;2023-04-01T05:14:15;17.33;;;6.57;;
63046;SDS011;62025;39.238;9.126;2023-04-01T05:16:47;21.25;;;6.60;;
63046;SDS011;62025;39.238;9.126;2023-04-01T05:19:14;19.45;;;6.57;;
63046;SDS011;62025;39.238;9.126;2023-04-01T05:21:43;18.60;;;7.30;;
63046;SDS011;62025;39.238;9.126;2023-04-01T05:24:09;11.73;;;5.78;;
63046;SDS011;62025;39.238;9.126;2023-04-01T05:26:36;17.55;;;6.57;;
63046;SDS011;62025;39.238;9.126;2023-04-01T05:29:03;14.43;;;6.22;;
63046;SDS011;62025;39.238;9.126;2023-04-01T05:31:30;15.55;;;6.43;;
63046;SDS011;62025;39.238;9.126;2023-04-01T05:33:57;18.40;;;6.10;;
63046;SDS011;62025;39.238;9.126;2023-04-01T05:36:23;13.48;;;5.90;;
63046;SDS011;62025;39.238;9.126;2023-04-01T05:38:50;18.02;;;6.00;;
63046;SDS011;62025;39.238;9.126;2023-04-01T05:41:18;15.15;;;5.85;;
63046;SDS011;62025;39.238;9.126;2023-04-01T05:43:45;17.98;;;5.80;;
63046;SDS011;62025;39.238;9.126;2023-04-01T05:46:29;18.45;;;6.03;;
63046;SDS011;62025;39.238;9.126;2023-04-01T05:49:04;16.15;;;5.50;;
63046;SDS011;62025;39.238;9.126;2023-04-01T05:51:30;12.75;;;5.40;;
63046;SDS011;62025;39.238;9.126;2023-04-01T05:53:56;18.20;;;5.15;;
63046;SDS011;62025;39.238;9.126;2023-04-01T05:56:22;15.63;;;5.72;;
63046;SDS011;62025;39.238;9.126;2023-04-01T05:58:51;18.63;;;5.50;;
63046;SDS011;62025;39.238;9.126;2023-04-01T06:01:21;16.80;;;5.30;;
63046;SDS011;62025;39.238;9.126;2023-04-01T06:03:47;18.20;;;5.78;;
63046;SDS011;62025;39.238;9.126;2023-04-01T06:06:20;13.38;;;4.88;;
63046;SDS011;62025;39.238;9.126;2023-04-01T06:08:55;13.23;;;5.22;;
63046;SDS011;62025;39.238;9.126;2023-04-01T06:12:29;15.98;;;5.35;;
63046;SDS011;62025;39.238;9.126;2023-04-01T06:18:12;12.65;;;5.10;;
63046;SDS011;62025;39.238;9.126;2023-04-01T06:44:44;13.63;;;5.55;;
63046;SDS011;62025;39.238;9.126;2023-04-01T06:58:20;13.95;;;4.90;;
63046;SDS011;62025;39.238;9.126;2023-04-01T07:00:51;13.85;;;4.18;;
63046;SDS011;62025;39.238;9.126;2023-04-01T07:03:26;17.05;;;5.20;;
63046;SDS011;62025;39.238;9.126;2023-04-01T07:06:35;11.20;;;4.38;;
63046;SDS011;62025;39.238;9.126;2023-04-01T07:09:13;16.55;;;4.22;;
63046;SDS011;62025;39.238;9.126;2023-04-01T07:12:10;14.80;;;4.70;;
63046;SDS011;62025;39.238;9.126;2023-04-01T07:15:24;16.65;;;4.43;;
63046;SDS011;62025;39.238;9.126;2023-04-01T07:17:59;12.48;;;4.25;;
63046;SDS011;62025;39.238;9.126;2023-04-01T07:20:33;15.55;;;3.90;;
63046;SDS011;62025;39.238;9.126;2023-04-01T07:23:04;12.30;;;3.78;;
63046;SDS011;62025;39.238;9.126;2023-04-01T07:25:52;12.32;;;3.30;;
63046;SDS011;62025;39.238;9.126;2023-04-01T07:28:36;15.85;;;3.90;;
63046;SDS011;62025;39.238;9.126;2023-04-01T07:31:23;12.05;;;3.33;;
63046;SDS011;62025;39.238;9.126;2023-04-01T07:54:13;15.48;;;3.38;;
63046;SDS011;62025;39.238;9.126;2023-04-01T07:57:11;13.55;;;3.05;;
63046;SDS011;62025;39.238;9.126;2023-04-01T08:03:10;13.02;;;2.65;;
63046;SDS011;62025;39.238;9.126;2023-04-01T08:05:57;12.45;;;2.80;;
63046;SDS011;62025;39.238;9.126;2023-04-01T08:08:50;14.15;;;3.20;;
63046;SDS011;62025;39.238;9.126;2023-04-01T08:11:39;17.70;;;2.80;;
63046;SDS011;62025;39.238;9.126;2023-04-01T08:21:00;15.45;;;2.70;;
63046;SDS011;62025;39.238;9.126;2023-04-01T08:23:32;15.68;;;3.13;;
63046;SDS011;62025;39.238;9.126;2023-04-01T08:34:03;10.07;;;2.17;;
63046;SDS011;62025;39.238;9.126;2023-04-01T08:36:36;10.50;;;2.50;;
63046;SDS011;62025;39.238;9.126;2023-04-01T08:39:16;13.00;;;3.70;;
63046;SDS011;62025;39.238;9.126;2023-04-01T08:47:42;7.78;;;2.33;;
63046;SDS011;62025;39.238;9.126;2023-04-01T08:50:43;11.00;;;2.33;;
63046;SDS011;62025;39.238;9.126;2023-04-01T09:03:10;9.13;;;2.13;;
63046;SDS011;62025;39.238;9.126;2023-04-01T09:12:06;9.20;;;1.83;;
63046;SDS011;62025;39.238;9.126;2023-04-01T09:27:33;12.95;;;2.45;;
63046;SDS011;62025;39.238;9.126;2023-04-01T09:30:39;6.95;;;1.85;;
63046;SDS011;62025;39.238;9.126;2023-04-01T09:33:35;11.93;;;2.40;;
63046;SDS011;62025;39.238;9.126;2023-04-01T09:43:14;8.95;;;2.13;;
63046;SDS011;62025;39.238;9.126;2023-04-01T09:51:39;11.18;;;2.53;;
63046;SDS011;62025;39.238;9.126;2023-04-01T09:55:21;10.20;;;3.15;;
63046;SDS011;62025;39.238;9.126;2023-04-01T10:11:08;7.82;;;2.10;;
63046;SDS011;62025;39.238;9.126;2023-04-01T10:14:19;12.32;;;1.90;;
63046;SDS011;62025;39.238;9.126;2023-04-01T11:21:54;6.85;;;1.73;;
63046;SDS011;62025;39.238;9.126;2023-04-01T11:30:39;9.60;;;2.35;;
63046;SDS011;62025;39.238;9.126;2023-04-01T11:33:44;8.02;;;1.65;;
63046;SDS011;62025;39.238;9.126;2023-04-01T11:36:41;9.43;;;1.80;;
63046;SDS011;62025;39.238;9.126;2023-04-01T11:54:26;8.50;;;1.90;;
63046;SDS011;62025;39.238;9.126;2023-04-01T12:17:49;8.07;;;2.63;;
63046;SDS011;62025;39.238;9.126;2023-04-01T12:20:36;9.05;;;1.80;;
63046;SDS011;62025;39.238;9.126;2023-04-01T13:03:32;5.13;;;1.45;;
63046;SDS011;62025;39.238;9.126;2023-04-01T13:12:40;9.40;;;2.08;;
63046;SDS011;62025;39.238;9.126;2023-04-01T13:39:10;8.38;;;1.50;;
63046;SDS011;62025;39.238;9.126;2023-04-01T13:45:00;9.82;;;1.67;;
63046;SDS011;62025;39.238;9.126;2023-04-01T14:17:07;6.72;;;1.65;;
63046;SDS011;62025;39.238;9.126;2023-04-01T14:23:12;9.52;;;1.90;;
63046;SDS011;62025;39.238;9.126;2023-04-01T14:25:43;11.52;;;1.80;;
63046;SDS011;62025;39.238;9.126;2023-04-01T14:28:23;10.85;;;1.90;;
63046;SDS011;62025;39.238;9.126;2023-04-01T14:51:03;9.30;;;2.40;;
63046;SDS011;62025;39.238;9.126;2023-04-01T14:56:40;13.93;;;2.70;;
63046;SDS011;62025;39.238;9.126;2023-04-01T15:01:50;12.95;;;2.25;;
63046;SDS011;62025;39.238;9.126;2023-04-01T15:04:49;8.82;;;1.83;;
63046;SDS011;62025;39.238;9.126;2023-04-01T15:13:13;8.25;;;2.10;;
63046;SDS011;62025;39.238;9.126;2023-04-01T15:35:45;14.20;;;2.63;;
63046;SDS011;62025;39.238;9.126;2023-04-01T15:38:43;16.20;;;2.30;;
63046;SDS011;62025;39.238;9.126;2023-04-01T15:41:15;8.40;;;2.58;;
63046;SDS011;62025;39.238;9.126;2023-04-01T15:43:49;10.70;;;1.98;;
63046;SDS011;62025;39.238;9.126;2023-04-01T16:33:40;19.05;;;4.30;;
63046;SDS011;62025;39.238;9.126;2023-04-01T16:41:38;12.82;;;3.28;;
63046;SDS011;62025;39.238;9.126;2023-04-01T16:44:18;14.33;;;2.80;;
63046;SDS011;62025;39.238;9.126;2023-04-01T16:46:51;12.88;;;2.33;;
63046;SDS011;62025;39.238;9.126;2023-04-01T16:49:50;16.77;;;3.22;;
63046;SDS011;62025;39.238;9.126;2023-04-01T16:52:48;13.05;;;2.63;;
63046;SDS011;62025;39.238;9.126;2023-04-01T16:55:20;12.95;;;2.65;;
63046;SDS011;62025;39.238;9.126;2023-04-01T17:00:36;11.38;;;2.00;;
63046;SDS011;62025;39.238;9.126;2023-04-01T17:05:36;11.10;;;2.30;;
63046;SDS011;62025;39.238;9.126;2023-04-01T17:08:34;11.65;;;2.60;;
63046;SDS011;62025;39.238;9.126;2023-04-01T17:11:31;12.23;;;2.20;;
63046;SDS011;62025;39.238;9.126;2023-04-01T17:14:29;11.57;;;2.95;;
63046;SDS011;62025;39.238;9.126;2023-04-01T17:19:55;12.32;;;3.05;;
63046;SDS011;62025;39.238;9.126;2023-04-01T17:23:22;9.73;;;2.60;;
63046;SDS011;62025;39.238;9.126;2023-04-01T17:28:50;16.25;;;2.35;;
63046;SDS011;62025;39.238;9.126;2023-04-01T17:34:42;9.70;;;2.10;;
63046;SDS011;62025;39.238;9.126;2023-04-01T17:43:10;10.48;;;2.40;;
63046;SDS011;62025;39.238;9.126;2023-04-01T17:49:23;13.77;;;2.60;;
63046;SDS011;62025;39.238;9.126;2023-04-01T17:52:39;7.45;;;2.15;;
63046;SDS011;62025;39.238;9.126;2023-04-01T17:58:18;12.32;;;3.05;;
63046;SDS011;62025;39.238;9.126;2023-04-01T18:00:56;15.60;;;2.88;;
63046;SDS011;62025;39.238;9.126;2023-04-01T18:09:05;16.40;;;2.83;;
63046;SDS011;62025;39.238;9.126;2023-04-01T18:11:59;12.45;;;2.78;;
63046;SDS011;62025;39.238;9.126;2023-04-01T18:17:27;10.35;;;2.47;;
63046;SDS011;62025;39.238;9.126;2023-04-01T18:22:56;11.80;;;3.42;;
63046;SDS011;62025;39.238;9.126;2023-04-01T18:25:30;8.80;;;2.80;;
63046;SDS011;62025;39.238;9.126;2023-04-01T18:39:13;11.77;;;2.28;;
63046;SDS011;62025;39.238;9.126;2023-04-01T18:44:59;12.27;;;2.33;;
63046;SDS011;62025;39.238;9.126;2023-04-01T18:47:40;14.90;;;3.38;;
63046;SDS011;62025;39.238;9.126;2023-04-01T18:50:53;22.02;;;3.10;;
63046;SDS011;62025;39.238;9.126;2023-04-01T18:53:35;15.05;;;3.47;;
63046;SDS011;62025;39.238;9.126;2023-04-01T18:56:15;10.35;;;2.50;;
63046;SDS011;62025;39.238;9.126;2023-04-01T19:01:43;9.50;;;2.53;;
63046;SDS011;62025;39.238;9.126;2023-04-01T19:07:53;13.13;;;2.28;;
63046;SDS011;62025;39.238;9.126;2023-04-01T19:10:36;10.85;;;3.28;;
63046;SDS011;62025;39.238;9.126;2023-04-01T19:13:35;13.40;;;2.63;;
63046;SDS011;62025;39.238;9.126;2023-04-01T19:16:28;15.05;;;3.00;;
63046;SDS011;62025;39.238;9.126;2023-04-01T19:22:18;14.40;;;2.88;;
63046;SDS011;62025;39.238;9.126;2023-04-01T19:27:52;12.48;;;3.05;;
63046;SDS011;62025;39.238;9.126;2023-04-01T19:30:37;11.60;;;2.70;;
63046;SDS011;62025;39.238;9.126;2023-04-01T19:42:02;13.48;;;2.55;;
63046;SDS011;62025;39.238;9.126;2023-04-01T19:50:50;10.25;;;2.15;;
63046;SDS011;62025;39.238;9.126;2023-04-01T19:53:27;12.93;;;2.80;;
63046;SDS011;62025;39.238;9.126;2023-04-01T20:11:18;7.80;;;2.45;;
63046;SDS011;62025;39.238;9.126;2023-04-01T20:39:03;10.30;;;3.63;;
63046;SDS011;62025;39.238;9.126;2023-04-01T20:45:32;10.98;;;2.28;;
63046;SDS011;62025;39.238;9.126;2023-04-01T20:50:45;11.95;;;2.65;;
63046;SDS011;62025;39.238;9.126;2023-04-01T21:10:29;11.48;;;2.60;;
63046;SDS011;62025;39.238;9.126;2023-04-01T21:27:56;11.80;;;3.80;;
63046;SDS011;62025;39.238;9.126;2023-04-01T22:00:09;10.90;;;3.50;;
63046;SDS011;62025;39.238;9.126;2023-04-01T22:05:30;9.65;;;2.78;;
63046;SDS011;62025;39.238;9.126;2023-04-01T22:11:08;10.70;;;2.67;;
63046;SDS011;62025;39.238;9.126;2023-04-01T22:16:50;17.85;;;2.90;;
63046;SDS011;62025;39.238;9.126;2023-04-01T22:22:01;10.15;;;3.00;;
63046;SDS011;62025;39.238;9.126;2023-04-01T22:30:47;10.43;;;2.72;;
63046;SDS011;62025;39.238;9.126;2023-04-01T22:33:42;12.70;;;3.40;;
63046;SDS011;62025;39.238;9.126;2023-04-01T22:36:24;11.20;;;3.20;;
63046;SDS011;62025;39.238;9.126;2023-04-01T22:39:18;12.40;;;3.28;;
63046;SDS011;62025;39.238;9.126;2023-04-01T22:42:00;14.65;;;2.90;;
63046;SDS011;62025;39.238;9.126;2023-04-01T22:50:55;14.15;;;3.33;;
63046;SDS011;62025;39.238;9.126;2023-04-01T22:53:37;14.10;;;3.03;;
63046;SDS011;62025;39.238;9.126;2023-04-01T22:56:18;14.68;;;2.85;;
63046;SDS011;62025;39.238;9.126;2023-04-01T22:59:36;12.18;;;3.05;;
63046;SDS011;62025;39.238;9.126;2023-04-01T23:02:15;8.60;;;2.77;;
63046;SDS011;62025;39.238;9.126;2023-04-01T23:04:48;12.73;;;2.42;;
63046;SDS011;62025;39.238;9.126;2023-04-01T23:10:39;12.43;;;3.13;;
63046;SDS011;62025;39.238;9.126;2023-04-01T23:13:24;10.55;;;2.50;;
63046;SDS011;62025;39.238;9.126;2023-04-01T23:15:57;15.25;;;2.75;;
63046;SDS011;62025;39.238;9.126;2023-04-01T23:18:28;14.35;;;2.60;;
63046;SDS011;62025;39.238;9.126;2023-04-01T23:24:25;12.75;;;3.05;;
63046;SDS011;62025;39.238;9.126;2023-04-01T23:27:24;13.07;;;3.03;;
63046;SDS011;62025;39.238;9.126;2023-04-01T23:30:00;9.98;;;2.70;;
63046;SDS011;62025;39.238;9.126;2023-04-01T23:32:27;13.73;;;3.05;;
63046;SDS011;62025;39.238;9.126;2023-04-01T23:34:59;11.27;;;2.88;;
63046;SDS011;62025;39.238;9.126;2023-04-01T23:37:25;14.98;;;2.60;;
63046;SDS011;62025;39.238;9.126;2023-04-01T23:39:53;13.32;;;3.00;;
63046;SDS011;62025;39.238;9.126;2023-04-01T23:42:22;13.93;;;2.88;;
63046;SDS011;62025;39.238;9.126;2023-04-01T23:44:53;13.63;;;2.90;;
63046;SDS011;62025;39.238;9.126;2023-04-01T23:47:29;13.88;;;2.40;;
63046;SDS011;62025;39.238;9.126;2023-04-01T23:49:59;12.43;;;2.65;;
63046;SDS011;62025;39.238;9.126;2023-04-01T23:52:40;18.42;;;3.13;;
